Time;durP1;ratioP1;P1;durP2;ratioP2;P2;SDS_P1;SDS_P2;PMS_P1;PMS_P2;Temp;Humidity;BMP_temperature;BMP_pressure;BME280_temperature;BME280_humidity;BME280_pressure;Samples;Min_cycle;Max_cycle;Signal;HPM_P1;HPM_P2
2021/07/26 00:02:17;;;;;;;26.40;23.60;;;20.00;99.90;;;;;;5071864;28;20219;-70
2021/07/26 00:04:42;;;;;;;27.13;24.53;;;20.00;99.90;;;;;;5072305;28;20402;-70
2021/07/26 00:07:08;;;;;;;25.50;22.80;;;20.00;99.90;;;;;;5071479;28;20401;-70
2021/07/26 00:09:34;;;;;;;25.83;23.30;;;20.00;99.90;;;;;;5072004;28;20575;-70
2021/07/26 00:11:59;;;;;;;27.03;24.37;;;20.00;99.90;;;;;;5072057;28;20666;-70
2021/07/26 00:14:25;;;;;;;27.40;24.70;;;20.00;99.90;;;;;;5072000;28;20447;-69
2021/07/26 00:16:50;;;;;;;27.73;24.93;;;20.00;99.90;;;;;;5071694;28;20206;-69
2021/07/26 00:19:16;;;;;;;26.50;23.83;;;19.90;99.90;;;;;;5072013;28;20168;-69
2021/07/26 00:21:42;;;;;;;27.37;24.67;;;20.00;99.90;;;;;;5070632;28;20168;-69
2021/07/26 00:24:07;;;;;;;28.07;25.07;;;20.00;99.90;;;;;;5072326;28;20182;-70
2021/07/26 00:26:33;;;;;;;31.00;25.93;;;20.00;99.90;;;;;;5072091;28;20513;-69
2021/07/26 00:28:58;;;;;;;26.30;23.60;;;20.00;99.90;;;;;;5072534;28;20391;-69
2021/07/26 00:31:23;;;;;;;28.70;25.70;;;20.00;99.90;;;;;;5071774;28;20188;-67
2021/07/26 00:34:14;;;;;;;27.17;24.57;;;20.10;99.90;;;;;;5072023;28;20541;-70
2021/07/26 00:36:41;;;;;;;30.67;27.07;;;20.10;99.90;;;;;;5071788;28;20206;-69
2021/07/26 00:39:09;;;;;;;30.20;27.20;;;20.00;99.90;;;;;;5071925;28;20466;-69
2021/07/26 00:41:35;;;;;;;29.57;26.53;;;20.10;99.90;;;;;;5072141;28;20409;-70
2021/07/26 00:44:02;;;;;;;29.47;26.57;;;20.10;99.90;;;;;;5070889;28;20462;-72
2021/07/26 00:46:27;;;;;;;29.13;26.43;;;20.00;99.90;;;;;;5071676;28;20459;-71
2021/07/26 00:48:53;;;;;;;28.20;25.30;;;20.10;99.90;;;;;;5072068;28;20402;-72
2021/07/26 00:51:19;;;;;;;28.63;25.83;;;20.00;99.90;;;;;;5072864;28;20606;-73
2021/07/26 00:53:46;;;;;;;28.23;25.53;;;20.00;99.90;;;;;;5073014;28;20850;-72
2021/07/26 00:56:13;;;;;;;29.47;26.47;;;20.00;99.90;;;;;;5072381;28;20958;-72
2021/07/26 00:58:38;;;;;;;28.53;25.73;;;20.10;99.90;;;;;;5071249;28;20482;-73
2021/07/26 01:01:04;;;;;;;27.47;24.53;;;20.10;99.90;;;;;;5072947;28;20442;-70
2021/07/26 01:03:29;;;;;;;29.20;26.30;;;20.00;99.90;;;;;;5071842;28;20191;-71
2021/07/26 01:05:56;;;;;;;27.40;24.70;;;20.00;99.90;;;;;;5071491;28;20805;-73
2021/07/26 01:08:21;;;;;;;28.53;25.50;;;20.00;99.90;;;;;;5072908;28;20184;-71
2021/07/26 01:10:47;;;;;;;28.30;25.13;;;20.00;99.90;;;;;;5072070;28;20426;-70
2021/07/26 01:13:13;;;;;;;28.43;25.63;;;20.00;99.90;;;;;;5071294;28;20206;-72
2021/07/26 01:15:38;;;;;;;26.20;23.70;;;20.00;99.90;;;;;;5072934;28;20202;-70
2021/07/26 01:18:23;;;;;;;24.97;22.57;;;19.90;99.90;;;;;;5075340;28;20172;-72
2021/07/26 01:20:51;;;;;;;25.40;22.80;;;20.00;99.90;;;;;;5074781;28;20189;-71
2021/07/26 01:23:17;;;;;;;27.63;24.80;;;19.90;99.90;;;;;;5076904;28;20407;-72
2021/07/26 01:25:43;;;;;;;25.03;22.57;;;19.90;99.90;;;;;;5075038;28;20414;-71
2021/07/26 01:28:08;;;;;;;25.67;23.47;;;19.90;99.90;;;;;;5075490;28;20174;-72
2021/07/26 01:30:34;;;;;;;26.00;23.60;;;19.90;99.90;;;;;;5075959;28;20287;-71
2021/07/26 01:32:59;;;;;;;26.00;22.67;;;19.90;99.90;;;;;;5075116;28;20561;-71
2021/07/26 01:35:25;;;;;;;26.77;23.93;;;19.90;99.90;;;;;;5076076;28;20193;-71
2021/07/26 01:37:50;;;;;;;27.40;24.60;;;19.90;99.90;;;;;;5076049;28;20200;-72
2021/07/26 01:40:16;;;;;;;25.17;22.40;;;19.90;99.90;;;;;;5076387;28;20191;-72
2021/07/26 01:42:43;;;;;;;26.30;23.90;;;19.90;99.90;;;;;;5075855;28;20161;-72
2021/07/26 01:45:10;;;;;;;24.33;22.10;;;19.90;99.90;;;;;;5075883;28;20579;-72
2021/07/26 01:47:50;;;;;;;23.63;21.53;;;19.90;99.90;;;;;;5076033;28;20797;-71
2021/07/26 01:50:19;;;;;;;24.30;22.00;;;19.90;99.90;;;;;;5075715;28;20416;-70
2021/07/26 01:52:45;;;;;;;23.43;21.30;;;19.90;99.90;;;;;;5075644;28;20402;-72
2021/07/26 01:55:12;;;;;;;26.30;23.50;;;19.90;99.90;;;;;;5076585;28;20460;-72
2021/07/26 01:57:38;;;;;;;23.27;20.80;;;19.90;99.90;;;;;;5074715;28;20491;-70
2021/07/26 02:00:05;;;;;;;25.37;22.97;;;19.90;99.90;;;;;;5074729;28;20768;-72
2021/07/26 02:02:31;;;;;;;25.10;22.33;;;19.80;99.90;;;;;;5075897;28;20422;-72
2021/07/26 02:04:58;;;;;;;24.80;22.60;;;19.80;99.90;;;;;;5074744;28;20400;-72
2021/07/26 02:07:24;;;;;;;38.30;23.87;;;19.80;99.90;;;;;;5075770;28;20559;-72
2021/07/26 02:09:50;;;;;;;25.40;23.10;;;19.80;99.90;;;;;;5075347;28;20434;-71
2021/07/26 02:12:16;;;;;;;26.27;23.77;;;19.80;99.90;;;;;;5074224;28;20551;-72
2021/07/26 02:14:41;;;;;;;24.07;21.73;;;19.80;99.90;;;;;;5075957;28;20165;-72
2021/07/26 02:17:07;;;;;;;26.00;23.40;;;19.80;99.90;;;;;;5073976;28;20458;-72
2021/07/26 02:19:33;;;;;;;25.97;23.47;;;19.90;99.90;;;;;;5075514;28;20184;-72
2021/07/26 02:21:59;;;;;;;25.23;22.53;;;19.80;99.90;;;;;;5074854;28;20164;-72
2021/07/26 02:24:25;;;;;;;25.80;23.40;;;19.80;99.90;;;;;;5075762;28;20450;-72
2021/07/26 02:26:50;;;;;;;27.30;24.70;;;19.80;99.90;;;;;;5074937;28;20168;-71
2021/07/26 02:29:16;;;;;;;25.87;23.37;;;19.80;99.90;;;;;;5073091;28;20183;-72
2021/07/26 02:31:41;;;;;;;25.43;23.03;;;19.80;99.90;;;;;;5074034;28;20213;-72
2021/07/26 02:34:07;;;;;;;23.80;21.67;;;19.80;99.90;;;;;;5075336;28;20174;-73
2021/07/26 02:36:32;;;;;;;26.13;23.47;;;19.80;99.90;;;;;;5075381;28;20213;-72
2021/07/26 02:38:58;;;;;;;27.57;24.47;;;19.70;99.90;;;;;;5074457;28;20194;-71
2021/07/26 02:41:23;;;;;;;27.63;25.03;;;19.70;99.90;;;;;;5073681;28;20581;-71
2021/07/26 02:43:49;;;;;;;26.23;23.57;;;19.70;99.90;;;;;;5073393;28;20166;-72
2021/07/26 02:46:15;;;;;;;27.47;25.07;;;19.70;99.90;;;;;;5074863;28;20261;-71
2021/07/26 02:48:41;;;;;;;26.67;24.07;;;19.70;99.90;;;;;;5073396;28;20258;-72
2021/07/26 02:51:07;;;;;;;28.47;25.87;;;19.70;99.90;;;;;;5074952;28;20197;-72
2021/07/26 02:53:32;;;;;;;27.83;25.10;;;19.70;99.90;;;;;;5073824;28;20174;-72
2021/07/26 02:55:58;;;;;;;28.73;26.10;;;19.60;99.90;;;;;;5073573;28;20445;-72
2021/07/26 02:58:24;;;;;;;26.53;24.03;;;19.60;99.90;;;;;;5074425;28;20171;-71
2021/07/26 03:00:50;;;;;;;28.07;25.47;;;19.60;99.90;;;;;;5073312;28;20187;-71
2021/07/26 03:03:16;;;;;;;26.80;24.40;;;19.60;99.90;;;;;;5073893;28;20182;-71
2021/07/26 03:05:41;;;;;;;27.50;25.00;;;19.60;99.90;;;;;;5074023;28;20808;-70
2021/07/26 03:08:07;;;;;;;28.63;25.93;;;19.60;99.90;;;;;;5073858;28;20421;-72
2021/07/26 03:10:32;;;;;;;26.97;24.27;;;19.60;99.90;;;;;;5074087;28;20197;-72
2021/07/26 03:12:58;;;;;;;26.13;23.80;;;19.70;99.90;;;;;;5073535;28;20173;-72
2021/07/26 03:15:24;;;;;;;27.47;24.77;;;19.70;99.90;;;;;;5072959;28;20197;-71
2021/07/26 03:17:50;;;;;;;26.07;23.73;;;19.70;99.90;;;;;;5071590;28;20528;-72
2021/07/26 03:20:16;;;;;;;25.77;23.37;;;19.70;99.90;;;;;;5073571;28;20184;-73
2021/07/26 03:22:58;;;;;;;28.13;25.63;;;19.70;99.90;;;;;;5071698;28;20405;-71
2021/07/26 03:25:25;;;;;;;25.93;23.10;;;19.70;99.90;;;;;;5072868;28;20804;-72
2021/07/26 03:27:50;;;;;;;27.00;24.40;;;19.70;99.90;;;;;;5072744;28;20413;-72
2021/07/26 03:30:17;;;;;;;27.20;24.53;;;19.70;99.90;;;;;;5072936;28;20439;-71
2021/07/26 03:32:43;;;;;;;25.43;22.93;;;19.70;99.90;;;;;;5073049;28;20171;-72
2021/07/26 03:35:10;;;;;;;26.37;23.97;;;19.70;99.90;;;;;;5071465;28;20413;-71
2021/07/26 03:37:35;;;;;;;27.03;24.33;;;19.70;99.90;;;;;;5072558;28;20816;-71
2021/07/26 03:40:01;;;;;;;26.33;23.93;;;19.70;99.90;;;;;;5072583;28;20458;-69
2021/07/26 03:42:27;;;;;;;29.30;26.40;;;19.70;99.90;;;;;;5072909;28;20164;-69
2021/07/26 03:44:55;;;;;;;28.00;25.23;;;19.70;99.90;;;;;;5072500;28;20425;-68
2021/07/26 03:47:22;;;;;;;32.73;29.73;;;19.70;99.90;;;;;;5072559;28;20537;-69
2021/07/26 03:49:47;;;;;;;39.77;34.17;;;19.70;99.90;;;;;;5071174;28;20440;-69
2021/07/26 03:52:13;;;;;;;40.43;36.30;;;19.70;99.90;;;;;;5072288;28;20417;-68
2021/07/26 03:54:38;;;;;;;59.33;48.80;;;19.70;99.90;;;;;;5072386;28;20558;-69
2021/07/26 03:57:04;;;;;;;68.63;53.70;;;19.80;99.90;;;;;;5072658;28;20501;-68
2021/07/26 03:59:30;;;;;;;60.63;50.90;;;19.80;99.90;;;;;;5072060;28;20195;-70
2021/07/26 04:01:55;;;;;;;53.50;45.23;;;19.80;99.90;;;;;;5071998;28;20408;-68
2021/07/26 04:04:22;;;;;;;49.83;43.70;;;19.80;99.90;;;;;;5072240;28;20229;-70
2021/07/26 04:06:52;;;;;;;53.00;43.27;;;19.80;99.90;;;;;;5071980;28;20169;-67
2021/07/26 04:09:19;;;;;;;51.33;42.30;;;19.90;99.90;;;;;;5072009;28;20496;-69
2021/07/26 04:11:47;;;;;;;48.20;41.00;;;19.90;99.90;;;;;;5070991;28;20451;-68
2021/07/26 04:14:14;;;;;;;45.97;41.03;;;19.90;99.90;;;;;;5072092;28;20433;-67
2021/07/26 04:16:40;;;;;;;43.67;37.43;;;19.90;99.90;;;;;;5070869;28;20551;-69
2021/07/26 04:19:05;;;;;;;41.33;37.00;;;19.90;99.90;;;;;;5071003;28;20434;-70
2021/07/26 04:21:32;;;;;;;45.43;35.43;;;20.00;99.90;;;;;;5070809;28;20169;-70
2021/07/26 04:23:59;;;;;;;40.47;36.00;;;20.00;99.90;;;;;;5072027;28;20187;-72
2021/07/26 04:26:25;;;;;;;39.97;31.10;;;20.00;99.90;;;;;;5070653;28;20414;-70
2021/07/26 04:28:51;;;;;;;37.30;32.10;;;20.10;99.90;;;;;;5070643;28;20437;-69
2021/07/26 04:31:16;;;;;;;34.67;31.17;;;20.20;99.90;;;;;;5070429;28;20437;-69
2021/07/26 04:33:42;;;;;;;33.23;28.80;;;20.20;99.90;;;;;;5072103;28;20693;-68
2021/07/26 04:36:07;;;;;;;33.37;29.90;;;20.30;99.90;;;;;;5071727;28;20196;-69
2021/07/26 04:38:33;;;;;;;33.30;27.97;;;20.40;99.90;;;;;;5071652;28;20653;-69
2021/07/26 04:40:58;;;;;;;29.33;26.43;;;20.40;99.90;;;;;;5072150;28;20222;-70
2021/07/26 04:43:24;;;;;;;29.73;26.90;;;20.50;99.90;;;;;;5072049;28;20551;-70
2021/07/26 04:45:50;;;;;;;27.57;24.97;;;20.50;99.90;;;;;;5071592;28;20492;-68
2021/07/26 04:48:16;;;;;;;29.20;26.50;;;20.60;99.90;;;;;;5071784;28;21079;-69
2021/07/26 04:50:41;;;;;;;27.40;24.70;;;20.60;99.90;;;;;;5070340;28;20676;-68
2021/07/26 04:53:07;;;;;;;29.10;26.43;;;20.70;99.90;;;;;;5073999;28;20705;-69
2021/07/26 04:55:33;;;;;;;27.27;24.80;;;20.70;99.90;;;;;;5075737;28;20567;-70
2021/07/26 04:57:58;;;;;;;29.27;26.33;;;20.70;99.90;;;;;;5075581;28;20178;-68
2021/07/26 05:00:26;;;;;;;29.30;26.53;;;20.60;99.90;;;;;;5075530;28;20179;-69
2021/07/26 05:02:52;;;;;;;26.93;24.03;;;20.70;99.90;;;;;;5074265;28;20179;-69
2021/07/26 05:05:18;;;;;;;27.63;25.13;;;20.80;99.90;;;;;;5074529;28;20404;-69
2021/07/26 05:07:43;;;;;;;27.30;24.77;;;20.90;99.90;;;;;;5075251;28;20405;-69
2021/07/26 05:10:11;;;;;;;25.77;23.43;;;20.90;99.90;;;;;;5075580;28;20196;-69
2021/07/26 05:12:36;;;;;;;26.77;24.27;;;20.90;99.90;;;;;;5074203;28;20203;-69
2021/07/26 05:15:02;;;;;;;25.00;22.60;;;21.10;99.90;;;;;;5075307;28;20488;-69
2021/07/26 05:17:27;;;;;;;25.93;23.00;;;21.20;99.90;;;;;;5075473;28;20170;-69
2021/07/26 05:19:53;;;;;;;25.97;23.47;;;21.20;99.90;;;;;;5075372;28;20194;-70
2021/07/26 05:22:20;;;;;;;25.73;23.37;;;21.30;99.90;;;;;;5075545;28;20768;-68
2021/07/26 05:24:45;;;;;;;26.40;23.80;;;21.40;99.90;;;;;;5076006;28;20507;-69
2021/07/26 05:27:11;;;;;;;24.50;22.10;;;21.50;99.90;;;;;;5077383;28;21031;-69
2021/07/26 05:29:38;;;;;;;23.93;21.43;;;21.60;99.90;;;;;;5076803;28;20443;-69
2021/07/26 05:32:04;;;;;;;25.13;22.73;;;21.70;99.90;;;;;;5075420;28;20430;-69
2021/07/26 05:34:29;;;;;;;25.37;22.80;;;21.80;99.90;;;;;;5075244;28;20410;-69
2021/07/26 05:36:55;;;;;;;22.57;20.27;;;21.90;99.90;;;;;;5074569;28;20988;-71
2021/07/26 05:39:25;;;;;;;21.90;19.80;;;22.40;99.90;;;;;;5075892;28;20197;-71
2021/07/26 05:41:52;;;;;;;20.20;18.40;;;22.40;99.90;;;;;;5076109;28;20906;-71
2021/07/26 05:44:17;;;;;;;19.80;17.90;;;22.50;99.90;;;;;;5076333;28;20402;-71
2021/07/26 05:46:43;;;;;;;19.60;17.87;;;22.60;99.90;;;;;;5075838;28;20423;-71
2021/07/26 05:49:08;;;;;;;20.63;18.67;;;22.50;99.90;;;;;;5074395;28;20173;-72
2021/07/26 05:51:34;;;;;;;22.63;20.27;;;22.80;99.90;;;;;;5073404;28;20197;-72
2021/07/26 05:54:00;;;;;;;21.93;19.60;;;23.10;99.90;;;;;;5075279;28;20675;-71
2021/07/26 05:56:28;;;;;;;22.83;20.93;;;23.20;99.90;;;;;;5075407;28;20201;-71
2021/07/26 05:58:55;;;;;;;22.17;20.27;;;23.30;99.90;;;;;;5073238;28;20424;-72
2021/07/26 06:04:05;;;;;;;22.97;20.73;;;23.30;99.90;;;;;;5073676;28;20454;-72
2021/07/26 06:06:30;;;;;;;23.93;21.87;;;22.90;99.90;;;;;;5075033;28;20990;-72
2021/07/26 06:08:56;;;;;;;23.23;21.23;;;22.40;99.90;;;;;;5074938;28;20171;-71
2021/07/26 06:11:21;;;;;;;24.60;22.40;;;22.60;99.90;;;;;;5074242;28;20198;-71
2021/07/26 06:13:47;;;;;;;24.80;22.30;;;22.80;99.90;;;;;;5073449;28;20177;-71
2021/07/26 06:16:12;;;;;;;24.83;22.53;;;23.00;99.90;;;;;;5076696;28;20273;-72
2021/07/26 06:18:38;;;;;;;20.80;18.90;;;23.00;99.90;;;;;;5075343;28;20170;-71
2021/07/26 06:21:07;;;;;;;21.00;19.20;;;22.90;99.90;;;;;;5074867;28;20187;-71
2021/07/26 06:23:33;;;;;;;22.93;20.83;;;23.00;99.90;;;;;;5075510;28;20513;-71
2021/07/26 06:25:58;;;;;;;20.63;18.77;;;22.90;99.90;;;;;;5075630;28;20400;-71
2021/07/26 06:28:24;;;;;;;20.07;18.37;;;22.80;99.90;;;;;;5074835;28;20957;-71
2021/07/26 06:30:49;;;;;;;22.17;19.50;;;23.00;99.90;;;;;;5074595;28;20269;-70
2021/07/26 06:33:15;;;;;;;22.37;20.17;;;23.10;99.90;;;;;;5072688;28;20537;-70
2021/07/26 06:35:40;;;;;;;20.30;18.30;;;23.90;99.90;;;;;;5075508;28;20255;-70
2021/07/26 06:38:06;;;;;;;21.57;19.67;;;24.20;99.90;;;;;;5075449;28;20165;-70
2021/07/26 06:40:33;;;;;;;20.77;18.80;;;24.00;99.90;;;;;;5073495;28;20291;-71
2021/07/26 06:42:59;;;;;;;23.17;21.13;;;24.10;99.90;;;;;;5074992;28;20238;-70
2021/07/26 06:45:26;;;;;;;21.93;20.10;;;24.20;99.90;;;;;;5073432;28;20493;-70
2021/07/26 06:47:51;;;;;;;21.27;19.40;;;24.10;99.90;;;;;;5075019;28;20174;-70
2021/07/26 06:50:18;;;;;;;22.20;20.30;;;24.20;99.90;;;;;;5073393;28;20439;-70
2021/07/26 06:52:44;;;;;;;21.43;19.73;;;24.00;99.90;;;;;;5074679;28;20164;-70
2021/07/26 06:55:10;;;;;;;21.67;19.80;;;24.50;99.90;;;;;;5073458;28;20937;-69
2021/07/26 06:57:35;;;;;;;20.10;18.30;;;24.70;99.90;;;;;;5074570;28;20251;-69
2021/07/26 07:00:01;;;;;;;19.67;17.83;;;25.80;99.90;;;;;;5073320;28;21019;-69
2021/07/26 07:02:27;;;;;;;18.70;16.70;;;26.00;99.90;;;;;;5074031;28;20591;-70
2021/07/26 07:04:52;;;;;;;18.83;16.60;;;25.60;99.90;;;;;;5074877;28;20294;-70
2021/07/26 07:07:18;;;;;;;15.90;14.37;;;25.60;99.90;;;;;;5074708;28;20172;-68
2021/07/26 07:09:43;;;;;;;14.50;13.27;;;25.80;99.90;;;;;;5072689;28;20194;-69
2021/07/26 07:12:09;;;;;;;14.53;13.37;;;25.90;99.90;;;;;;5073460;28;20605;-69
2021/07/26 07:14:35;;;;;;;14.67;13.37;;;26.10;99.90;;;;;;5073719;28;20170;-68
2021/07/26 07:17:01;;;;;;;15.57;14.07;;;26.00;99.90;;;;;;5072361;28;20208;-69
2021/07/26 07:19:27;;;;;;;14.80;13.60;;;26.50;99.90;;;;;;5074046;28;20566;-69
2021/07/26 07:21:52;;;;;;;13.57;12.27;;;27.30;99.90;;;;;;5073615;28;20654;-69
2021/07/26 07:24:18;;;;;;;13.40;12.20;;;27.60;99.90;;;;;;5073519;28;20173;-68
2021/07/26 07:26:43;;;;;;;15.83;11.83;;;27.70;99.90;;;;;;5072438;28;20253;-69
2021/07/26 07:29:09;;;;;;;12.83;11.63;;;27.50;99.90;;;;;;5072964;28;20601;-70
2021/07/26 07:31:36;;;;;;;11.60;10.70;;;26.60;99.90;;;;;;5072783;28;20249;-69
2021/07/26 07:34:03;;;;;;;12.20;11.00;;;26.50;99.90;;;;;;5073642;28;20170;-69
2021/07/26 07:36:29;;;;;;;13.33;12.23;;;26.30;99.90;;;;;;5073282;28;20463;-68
2021/07/26 07:38:56;;;;;;;13.97;12.77;;;26.30;99.90;;;;;;5073257;28;20415;-69
2021/07/26 07:41:22;;;;;;;14.00;12.77;;;27.00;99.90;;;;;;5072682;28;20189;-69
2021/07/26 07:43:48;;;;;;;13.90;12.80;;;26.70;99.90;;;;;;5073031;28;20895;-71
2021/07/26 07:46:14;;;;;;;16.43;15.00;;;27.30;99.90;;;;;;5072986;28;20415;-70
2021/07/26 07:48:40;;;;;;;16.47;14.77;;;26.60;99.90;;;;;;5072711;28;20525;-72
2021/07/26 07:51:08;;;;;;;16.10;14.80;;;27.00;99.90;;;;;;5072844;28;20424;-70
2021/07/26 07:53:33;;;;;;;13.83;12.70;;;27.20;99.90;;;;;;5072628;28;20442;-70
2021/07/26 07:55:59;;;;;;;16.20;14.70;;;27.30;99.90;;;;;;5072743;28;20541;-70
2021/07/26 07:58:25;;;;;;;16.23;14.83;;;27.20;99.90;;;;;;5072809;28;20185;-70
2021/07/26 08:00:52;;;;;;;12.57;11.37;;;27.00;99.90;;;;;;5072288;28;20197;-73
2021/07/26 08:03:19;;;;;;;13.87;10.50;;;26.20;99.90;;;;;;5072598;28;20181;-73
2021/07/26 08:05:46;;;;;;;12.10;11.03;;;26.10;99.90;;;;;;5072603;28;20408;-73
2021/07/26 08:08:11;;;;;;;10.33;9.43;;;26.50;99.90;;;;;;5072187;28;20412;-73
2021/07/26 08:10:37;;;;;;;10.30;9.47;;;26.80;99.90;;;;;;5072087;28;20489;-72
2021/07/26 08:13:02;;;;;;;10.27;9.37;;;27.00;99.90;;;;;;5072545;28;20174;-71
2021/07/26 08:15:28;;;;;;;9.77;8.97;;;27.20;99.90;;;;;;5071963;28;20544;-73
2021/07/26 08:17:53;;;;;;;15.17;12.43;;;27.80;99.90;;;;;;5072194;28;20170;-73
2021/07/26 08:20:19;;;;;;;15.43;14.03;;;27.80;99.90;;;;;;5071983;28;20182;-73
2021/07/26 08:22:45;;;;;;;14.40;13.10;;;28.30;99.90;;;;;;5072079;28;20234;-72
2021/07/26 08:25:12;;;;;;;14.20;13.00;;;28.50;99.90;;;;;;5072091;28;20209;-73
2021/07/26 08:27:57;;;;;;;14.00;12.80;;;28.40;99.90;;;;;;5071185;28;20916;-74
2021/07/26 08:30:28;;;;;;;14.93;13.53;;;28.50;99.90;;;;;;5070830;28;20428;-73
2021/07/26 08:32:54;;;;;;;12.17;11.27;;;27.80;99.90;;;;;;5070929;28;20419;-73
2021/07/26 08:35:20;;;;;;;13.93;12.70;;;28.00;99.90;;;;;;5072032;28;20392;-73
2021/07/26 08:37:46;;;;;;;14.20;13.10;;;28.00;99.90;;;;;;5071745;28;20173;-73
2021/07/26 08:40:12;;;;;;;15.07;13.50;;;28.00;99.90;;;;;;5071612;28;20420;-72
2021/07/26 08:42:38;;;;;;;13.80;12.20;;;27.10;99.90;;;;;;5071478;28;20721;-72
2021/07/26 08:45:05;;;;;;;14.53;13.37;;;26.90;99.90;;;;;;5071752;28;20407;-72
2021/07/26 08:47:32;;;;;;;13.43;12.23;;;26.90;99.90;;;;;;5071768;28;20454;-72
2021/07/26 08:50:01;;;;;;;13.90;12.53;;;27.10;99.90;;;;;;5071788;28;20428;-71
2021/07/26 08:52:32;;;;;;;13.10;12.10;;;27.00;99.90;;;;;;5071755;28;21086;-72
2021/07/26 08:54:58;;;;;;;12.90;11.80;;;26.80;99.90;;;;;;5071546;28;20411;-71
2021/07/26 08:57:24;;;;;;;12.60;11.60;;;26.50;99.90;;;;;;5071446;28;20550;-71
2021/07/26 08:59:49;;;;;;;12.27;11.07;;;27.10;99.90;;;;;;5070289;28;20214;-73
2021/07/26 09:02:15;;;;;;;11.63;10.73;;;26.90;99.90;;;;;;5070291;28;20235;-72
2021/07/26 09:04:40;;;;;;;12.23;11.13;;;27.90;99.90;;;;;;5071852;28;20672;-72
2021/07/26 09:07:07;;;;;;;10.57;9.60;;;27.70;99.90;;;;;;5071511;28;20672;-71
2021/07/26 09:09:45;;;;;;;11.57;10.30;;;28.10;99.90;;;;;;5071271;28;20216;-72
2021/07/26 09:12:33;;;;;;;10.20;9.10;;;28.30;99.90;;;;;;5071513;28;20404;-72
2021/07/26 09:15:00;;;;;;;12.30;11.40;;;28.30;99.90;;;;;;5070270;28;20496;-72
2021/07/26 09:17:42;;;;;;;11.80;10.70;;;28.30;99.90;;;;;;5071314;28;20478;-72
2021/07/26 09:20:08;;;;;;;11.77;10.67;;;28.30;99.90;;;;;;5071926;28;20416;-72
2021/07/26 09:22:36;;;;;;;12.10;11.10;;;28.60;99.90;;;;;;5071372;28;20407;-72
2021/07/26 09:25:22;;;;;;;13.70;12.40;;;28.30;99.90;;;;;;5070093;28;20833;-72
2021/07/26 09:28:07;;;;;;;12.73;11.53;;;28.90;99.90;;;;;;5071180;28;20922;-72
2021/07/26 09:30:48;;;;;;;12.60;11.30;;;28.70;99.90;;;;;;5071224;28;20435;-72
2021/07/26 09:33:23;;;;;;;12.03;10.50;;;28.70;99.90;;;;;;5071492;28;20818;-71
2021/07/26 09:36:21;;;;;;;10.10;9.30;;;29.60;99.90;;;;;;5071267;28;20448;-71
2021/07/26 09:38:46;;;;;;;10.33;9.33;;;29.00;99.90;;;;;;5072621;28;20400;-71
2021/07/26 09:41:12;;;;;;;10.77;9.87;;;29.80;99.90;;;;;;5074788;28;20789;-71
2021/07/26 09:43:38;;;;;;;9.30;8.50;;;29.80;99.90;;;;;;5075318;28;20170;-71
2021/07/26 09:46:04;;;;;;;8.60;7.90;;;30.60;99.90;;;;;;5074965;28;20182;-71
2021/07/26 09:48:31;;;;;;;9.07;8.27;;;31.10;99.90;;;;;;5074755;28;20411;-71
2021/07/26 09:50:59;;;;;;;9.07;8.27;;;30.40;99.90;;;;;;5074787;28;20186;-71
2021/07/26 09:53:27;;;;;;;8.73;8.13;;;29.70;99.90;;;;;;5073806;28;20452;-71
2021/07/26 09:56:13;;;;;;;8.40;7.60;;;29.90;99.90;;;;;;5074907;28;20462;-73
2021/07/26 09:58:40;;;;;;;8.40;7.60;;;30.00;99.90;;;;;;5073258;28;20450;-72
2021/07/26 10:01:08;;;;;;;9.67;8.97;;;28.90;99.90;;;;;;5073326;28;20472;-72
2021/07/26 10:03:38;;;;;;;7.13;6.53;;;29.40;99.90;;;;;;5074421;28;20417;-71
2021/07/26 10:06:04;;;;;;;6.17;5.57;;;29.90;99.90;;;;;;5074544;28;20458;-70
2021/07/26 10:08:30;;;;;;;6.03;5.50;;;29.50;99.90;;;;;;5074283;28;20404;-69
2021/07/26 10:10:56;;;;;;;9.80;7.90;;;29.50;99.90;;;;;;5074106;28;20455;-70
2021/07/26 10:13:22;;;;;;;8.20;7.30;;;29.80;99.90;;;;;;5074200;28;20396;-70
2021/07/26 10:15:49;;;;;;;8.97;8.27;;;30.00;99.90;;;;;;5074256;28;20190;-71
2021/07/26 10:18:14;;;;;;;8.13;7.50;;;30.30;99.90;;;;;;5074292;28;20206;-69
2021/07/26 10:20:46;;;;;;;6.80;6.30;;;29.70;99.90;;;;;;5074288;28;20459;-70
2021/07/26 10:23:20;;;;;;;6.53;6.03;;;29.50;99.90;;;;;;5072720;28;20169;-69
2021/07/26 10:25:58;;;;;;;7.07;6.33;;;29.90;99.90;;;;;;5074341;28;20903;-70
2021/07/26 10:28:55;;;;;;;6.03;5.53;;;30.40;99.90;;;;;;5073054;28;20412;-69
2021/07/26 10:31:30;;;;;;;7.63;7.03;;;29.60;99.90;;;;;;5074803;28;20420;-70
2021/07/26 10:34:11;;;;;;;7.37;6.77;;;29.70;99.90;;;;;;5074981;28;20411;-69
2021/07/26 10:36:40;;;;;;;8.40;7.70;;;29.20;99.90;;;;;;5073779;28;20463;-69
2021/07/26 10:39:05;;;;;;;8.37;7.57;;;28.90;99.90;;;;;;5074061;28;20404;-69
2021/07/26 10:41:43;;;;;;;10.40;9.50;;;28.90;99.90;;;;;;5074425;28;20540;-70
2021/07/26 10:44:17;;;;;;;8.10;7.40;;;29.40;99.90;;;;;;5075049;28;20210;-69
2021/07/26 10:46:59;;;;;;;9.40;8.70;;;30.00;99.90;;;;;;5074826;28;20411;-69
2021/07/26 10:49:43;;;;;;;9.20;8.40;;;29.90;99.90;;;;;;5074535;28;20449;-70
2021/07/26 10:52:29;;;;;;;8.97;8.27;;;30.00;99.90;;;;;;5074700;28;20400;-70
2021/07/26 10:54:56;;;;;;;8.23;7.53;;;29.80;99.90;;;;;;5073110;28;20455;-70
2021/07/26 10:57:41;;;;;;;8.40;7.80;;;29.70;99.90;;;;;;5074253;28;20498;-71
2021/07/26 11:00:09;;;;;;;9.20;8.40;;;29.60;99.90;;;;;;5074446;28;20435;-70
2021/07/26 11:02:36;;;;;;;8.63;7.87;;;29.60;99.90;;;;;;5073375;28;20478;-69
2021/07/26 11:05:23;;;;;;;7.87;7.20;;;29.50;99.90;;;;;;5073498;28;20424;-70
2021/07/26 11:08:09;;;;;;;8.50;7.90;;;29.60;99.90;;;;;;5074318;28;20396;-70
2021/07/26 11:10:57;;;;;;;9.33;8.50;;;29.80;99.90;;;;;;5073327;28;21007;-70
2021/07/26 11:13:23;;;;;;;9.33;8.43;;;29.80;99.90;;;;;;5074526;28;20453;-71
2021/07/26 11:15:51;;;;;;;9.30;8.50;;;29.30;99.90;;;;;;5074817;28;20861;-70
2021/07/26 11:18:20;;;;;;;8.97;8.20;;;29.00;99.90;;;;;;5074738;28;20400;-68
2021/07/26 11:20:56;;;;;;;9.10;8.40;;;29.40;99.90;;;;;;5073120;28;20853;-68
2021/07/26 11:23:52;;;;;;;8.10;7.30;;;29.50;99.90;;;;;;5073313;28;20990;-70
2021/07/26 11:26:24;;;;;;;6.23;5.73;;;29.30;99.90;;;;;;5073710;28;20994;-70
2021/07/26 11:28:51;;;;;;;6.00;5.43;;;29.50;99.90;;;;;;5074431;28;20488;-68
2021/07/26 11:31:25;;;;;;;6.70;6.20;;;29.30;99.90;;;;;;5073181;28;20958;-69
2021/07/26 11:33:52;;;;;;;6.57;5.97;;;29.70;99.90;;;;;;5072852;28;20466;-69
2021/07/26 11:36:20;;;;;;;7.87;7.27;;;29.60;99.90;;;;;;5073713;28;20539;-69
2021/07/26 11:39:01;;;;;;;7.40;6.17;;;29.90;99.90;;;;;;5073491;28;20400;-71
2021/07/26 11:41:28;;;;;;;6.90;6.30;;;29.70;99.90;;;;;;5073782;28;20492;-69
2021/07/26 11:43:54;;;;;;;6.97;6.20;;;29.70;99.90;;;;;;5072876;28;20531;-70
2021/07/26 11:46:22;;;;;;;7.00;6.40;;;29.80;99.90;;;;;;5073217;28;20416;-69
2021/07/26 11:48:56;;;;;;;6.33;5.83;;;29.60;99.90;;;;;;5074593;28;20509;-69
2021/07/26 11:51:35;;;;;;;5.90;5.40;;;29.60;99.90;;;;;;5072769;28;20427;-69
2021/07/26 11:54:06;;;;;;;6.30;5.80;;;29.80;99.90;;;;;;5071863;28;20927;-71
2021/07/26 11:56:32;;;;;;;5.53;5.03;;;30.10;99.90;;;;;;5072741;28;20460;-72
2021/07/26 11:59:20;;;;;;;5.43;5.03;;;30.00;99.90;;;;;;5072810;28;20462;-71
2021/07/26 12:01:57;;;;;;;6.53;5.93;;;29.90;99.90;;;;;;5071464;28;20253;-71
2021/07/26 12:04:28;;;;;;;6.83;6.13;;;29.70;99.90;;;;;;5073917;28;20428;-72
2021/07/26 12:06:55;;;;;;;6.10;5.60;;;29.40;99.90;;;;;;5072838;28;20462;-71
2021/07/26 12:09:22;;;;;;;6.77;5.60;;;29.30;99.90;;;;;;5072315;28;20464;-71
2021/07/26 12:11:48;;;;;;;6.80;6.20;;;29.80;99.90;;;;;;5072232;28;20937;-71
2021/07/26 12:14:28;;;;;;;7.53;6.63;;;29.70;99.90;;;;;;5074385;28;20393;-72
2021/07/26 12:17:05;;;;;;;7.73;7.10;;;28.60;99.90;;;;;;5073435;28;20197;-72
2021/07/26 12:19:31;;;;;;;7.63;6.93;;;28.10;99.90;;;;;;5073802;28;20435;-71
2021/07/26 12:22:11;;;;;;;7.23;6.63;;;28.40;99.90;;;;;;5073781;28;20494;-71
2021/07/26 12:24:47;;;;;;;7.30;6.60;;;28.40;99.90;;;;;;5073525;28;20403;-71
2021/07/26 12:27:27;;;;;;;7.80;6.33;;;28.40;99.90;;;;;;5073489;28;20469;-72
2021/07/26 12:29:54;;;;;;;8.33;7.40;;;28.50;99.90;;;;;;5073149;28;20937;-72
2021/07/26 12:32:19;;;;;;;8.03;7.43;;;28.10;99.90;;;;;;5073246;28;20439;-72
2021/07/26 12:35:11;;;;;;;8.03;7.23;;;28.30;99.90;;;;;;5072569;28;20933;-72
2021/07/26 12:37:37;;;;;;;7.90;7.20;;;28.60;99.90;;;;;;5073592;28;20204;-72
2021/07/26 12:40:16;;;;;;;9.90;6.57;;;28.20;99.90;;;;;;5073147;28;20420;-71